Elrod, Alabama
Current Conditions -  °F | °C
As of 5:53 PM on Monday 22 Dec 2014 (Local Time) from KTCL Reporting Station
Overcast Overcast  
Wind Chill: 56°   Ceiling: 600
Heat Index: 56°   Visibility: 10mi
Dew Point: 53°   Wind: 8mph
Humidity: 90%   Direction: 140°SE
Pressure: 29.76"   Gusts: NA
Location:  33.26°N, 87.79°W
Report Text: KTCL 222353Z 14007KT 10SM OVC006 13/12 A2976 RMK AO2 RAB20E29 SLP077 P0000 60001 T01330117 10144 20128 55001
Loading
Personal Weather Stations






























Interactive Weather Map New forecast layout! Learn more

10-Day Weather Forecast

Advertisements
Track Severe Weather on mobile